ADDS METAR Data INFO
IDs: Format: Raw Decoded Include TAF

Data at: 0653 UTC 18 Feb 2018

KAPY 180635Z AUTO 14004KT 10SM CLR 22/17 A3003 RMK AO2 T02200172
KAPY 180615Z AUTO 13003KT 10SM CLR 22/17 A3003 RMK AO2 T02220173
KAPY 180555Z AUTO 13005KT 10SM CLR 22/17 A3003 RMK AO2 T02270173
KAPY 180535Z AUTO 13008KT 10SM CLR 23/17 A3004 RMK AO2 T02300175
KAPY 180515Z AUTO 13005KT 10SM CLR 23/17 A3004 RMK AO2 T02350175
KAPY 180455Z AUTO 15005KT 10SM SCT060 23/17 A3005 RMK AO2 T02390175
KAPY 180435Z AUTO 15008KT 10SM BKN060 25/17 A3004 RMK AO2 T02470177
KAPY 180415Z AUTO 15004KT 10SM BKN060 23/17 A3004 RMK AO2 T02360174
KAPY 180355Z AUTO 00000KT 10SM SCT060 23/17 A3004 RMK AO2 T02360172
KAPY 180335Z AUTO 20003KT 10SM SCT060 23/17 A3004 RMK AO2 T02400172
KAPY 180315Z AUTO 00000KT 10SM BKN050 BKN060 24/17 A3004 RMK AO2 T02450172
KAPY 180255Z AUTO 36006KT 10SM OVC060 24/17 A3004 RMK AO2 T02450172
KAPY 180235Z AUTO 32005KT 10SM OVC060 24/17 A3002 RMK AO2 T02430174
KAPY 180215Z AUTO 30005KT 10SM BKN060 24/17 A3002 RMK AO2 T02430173
KAPY 180155Z AUTO 31006KT 10SM CLR 24/17 A3001 RMK AO2 T02440173
KAPY 180135Z AUTO 30006KT 10SM CLR 24/17 A3000 RMK AO2 T02460172
KAPY 180115Z AUTO 28005KT 10SM CLR 25/15 A2999 RMK AO2 T02500157
KAPY 180055Z AUTO 00000KT 10SM CLR 26/15 A2999 RMK AO2 T02600156
KAPY 180035Z AUTO 00000KT 10SM CLR 27/15 A2999 RMK AO2 T02720155
KAPY 180015Z AUTO 00000KT 10SM CLR 27/15 A2999 RMK AO2 T02800152
KAPY 172355Z AUTO 00000KT 10SM CLR 28/15 A2998 RMK AO2 T02850152
KAPY 172335Z AUTO 20004KT 10SM CLR 28/15 A2998 RMK AO2 T02880152
KAPY 172315Z AUTO 16004KT 10SM CLR 29/15 A2997 RMK AO2 T02920154
KAPY 172255Z AUTO 23003KT 10SM SCT050 28/15 A2997 RMK AO2 T02880155
KAPY 172235Z AUTO 21004KT 10SM SCT050 29/15 A2997 RMK AO2 T02950153
KAPY 172215Z AUTO 24005KT 10SM BKN050 29/15 A2998 RMK AO2 T02940155
KAPY 172155Z AUTO 29004KT 10SM BKN048 29/16 A2998 RMK AO2 T02940159
KAPY 172135Z AUTO 21006KT 10SM BKN048 29/16 A2998 RMK AO2 T02930159
KAPY 172115Z AUTO 24004KT 10SM SCT048 28/16 A2999 RMK AO2 T02860160
KAPY 172055Z AUTO 27004KT 10SM SCT046 28/16 A2999 RMK AO2 T02830161
KAPY 172035Z AUTO 27005KT 10SM SCT044 28/16 A2999 RMK AO2 T02850163
KAPY 172015Z AUTO 20003KT 10SM SCT041 28/16 A3000 RMK AO2 T02850165
KAPY 171955Z AUTO 18004KT 10SM BKN039 BKN045 27/16 A3000 RMK AO2 T02770166
KAPY 171935Z AUTO 19003KT 10SM BKN035 27/16 A3001 RMK AO2 T02790167
KAPY 171915Z AUTO 00000KT 10SM SCT035 27/16 A3002 RMK AO2 T02750166
KAPY 171855Z AUTO 20005KT 10SM BKN031 27/17 A3002 RMK AO2 T02710169
KAPY 171835Z AUTO 14006KT 10SM BKN029 BKN035 26/17 A3003 RMK AO2 T02600175
KAPY 171815Z AUTO 20003KT 10SM SCT027 25/17 A3004 RMK AO2 T02550175
KAPY 171755Z AUTO 16005KT 7SM SCT020 SCT030 25/17 A3005 RMK AO2 T02520178
KAPY 171735Z AUTO 19004KT 7SM BKN018 23/18 A3006 RMK AO2 T02400180
KAPY 171715Z AUTO 13005KT 7SM BKN016 23/18 A3006 RMK AO2 T02380180
KAPY 171655Z AUTO 15005KT 7SM OVC014 22/17 A3007 RMK AO2 T02300180
KAPY 171635Z AUTO 16006KT 7SM OVC012 22/17 A3007 RMK AO2 T02250180
KAPY 171615Z AUTO 16009KT 7SM OVC012 22/18 A3006 RMK AO2 T02210181
KAPY 171555Z AUTO 17008KT 7SM OVC012 22/18 A3006 RMK AO2 T02240182
KAPY 171535Z AUTO 17009KT 7SM OVC012 22/18 A3006 RMK AO2 T02230185
KAPY 171515Z AUTO 17006KT 7SM OVC010 21/18 A3006 RMK AO2 T02180186
KAPY 171455Z AUTO 17008KT 7SM BKN010 21/18 A3004 RMK AO2 T02150189
KAPY 171435Z AUTO 15006KT 5SM BR SCT012 20/19 A3003 RMK AO2 T02070193
KAPY 171415Z AUTO 14005KT 5SM BR CLR 20/19 A3002 RMK AO2 T02000194
KAPY 171355Z AUTO 15005KT 5SM BR CLR 20/19 A3001 RMK AO2 T01970192
KAPY 171335Z AUTO 14004KT 5SM BR CLR 19/18 A3001 RMK AO2 T01950190
KAPY 171315Z AUTO 15003KT 7SM CLR 19/18 A3001 RMK AO2 T01950190
KAPY 171255Z AUTO 15005KT 7SM SCT011 19/18 A3000 RMK AO2 T01950190
KAPY 171230Z AUTO 14004KT 7SM CLR 19/18 A2999 RMK AO2 T01960190
KAPY 171215Z AUTO 15004KT 7SM CLR 20/18 A2999 RMK AO2 T01970190
KAPY 171155Z AUTO 14005KT 7SM SCT010 20/18 A2999 RMK AO2 T02000191
KAPY 171135Z AUTO 14004KT 7SM BKN010 BKN014 20/18 A2999 RMK AO2 T02020190
KAPY 171115Z AUTO 14005KT 7SM OVC010 20/18 A2999 RMK AO2 T02050190
KAPY 171055Z AUTO 14007KT 7SM OVC012 21/18 A2998 RMK AO2 T02100182
KAPY 171035Z AUTO 15008KT 10SM OVC012 21/18 A2998 RMK AO2 T02110182
KAPY 171015Z AUTO 14008G14KT 10SM OVC012 21/18 A2998 RMK AO2 T02130182
KAPY 170955Z AUTO 14007G14KT 10SM OVC012 21/18 A2998 RMK AO2 T02150182
KAPY 170935Z AUTO 14011G15KT 10SM OVC014 21/18 A2997 RMK AO2 T02160182
KAPY 170915Z AUTO 13008KT 10SM OVC014 21/18 A2998 RMK AO2 T02150181
KAPY 170855Z AUTO 13007KT 10SM OVC014 21/18 A2998 RMK AO2 T02150181
KAPY 170835Z AUTO 13008KT 10SM OVC014 21/18 A2998 RMK AO2 T02160182
KAPY 170815Z AUTO 13008KT 10SM OVC014 21/18 A2999 RMK AO2 T02150181
KAPY 170755Z AUTO 13007KT 10SM OVC014 21/18 A2999 RMK AO2 T02150181
KAPY 170735Z AUTO 13005KT 10SM OVC014 21/17 A3001 RMK AO2 T02130180
KAPY 170715Z AUTO 13006KT 10SM OVC016 21/17 A3001 RMK AO2 T02130180
KAPY 170655Z AUTO 13006KT 10SM OVC016 21/17 A3002 RMK AO2 T02130180
KAPY 170635Z AUTO 14004KT 10SM SCT016 21/17 A3002 RMK AO2 T02120179
KAPY 170615Z AUTO 12007KT 10SM SCT016 SCT050 21/17 A3002 RMK AO2 T02150178
KAPY 170555Z AUTO 13009G15KT 10SM SCT016 SCT050 21/17 A3003 RMK AO2 T02180178
KAPY 170535Z AUTO 13010G15KT 10SM SCT050 22/17 A3003 RMK AO2 T02200177
KAPY 170515Z AUTO 13008KT 10SM CLR 22/17 A3003 RMK AO2 T02210177
KAPY 170455Z AUTO 12010G16KT 10SM SCT049 SCT065 22/17 A3002 RMK AO2 T02270178
KAPY 170435Z AUTO 12010G14KT 10SM SCT049 SCT055 22/17 A3002 RMK AO2 T02300177
KAPY 170415Z AUTO 13009G15KT 10SM SCT049 23/17 A3002 RMK AO2 T02350177
KAPY 170355Z AUTO 14009KT 10SM CLR 23/17 A3002 RMK AO2 T02370177
KAPY 170335Z AUTO 14008G16KT 10SM CLR 24/17 A3001 RMK AO2 T02430178
KAPY 170315Z AUTO 13007G14KT 10SM CLR 25/17 A3000 RMK AO2 T02500178
KAPY 170255Z AUTO 13007KT 10SM SCT048 25/17 A3000 RMK AO2 T02520172
KAPY 170235Z AUTO 12006KT 10SM BKN048 BKN050 25/16 A3000 RMK AO2 T02570168
KAPY 170215Z AUTO 12005KT 10SM BKN050 BKN060 25/16 A2999 RMK AO2 T02570166
KAPY 170155Z AUTO 11005KT 10SM SCT050 SCT055 26/16 A2999 RMK AO2 T02600166
KAPY 170135Z AUTO 12005KT 10SM SCT055 26/16 A2998 RMK AO2 T02630165
KAPY 170115Z AUTO 12005KT 10SM SCT055 27/16 A2997 RMK AO2 T02690165
KAPY 170055Z AUTO 10006KT 10SM SCT055 27/16 A2997 RMK AO2 T02760164
KAPY 170035Z AUTO 09005KT 10SM SCT065 28/16 A2996 RMK AO2 T02830163
KAPY 170015Z AUTO 08006KT 10SM SCT065 29/16 A2996 RMK AO2 T02910160
KAPY 162355Z AUTO 09005KT 10SM SCT065 30/15 A2995 RMK AO2 T02980152
KAPY 162335Z AUTO 08006KT 10SM SCT055 30/15 A2995 RMK AO2 T03060151
KAPY 162315Z AUTO 01003KT 10SM SCT055 30/15 A2995 RMK AO2 T03040150
KAPY 162255Z AUTO 00000KT 10SM CLR 30/15 A2996 RMK AO2 T03070149
KAPY 162230Z AUTO 04003KT 10SM CLR 31/14 A2996 RMK AO2 T03100146
KAPY 162215Z AUTO 00000KT 10SM CLR 30/14 A2996 RMK AO2 T03070146
KAPY 162155Z AUTO 06004KT 10SM CLR 30/14 A2997 RMK AO2 T03030147
KAPY 162135Z AUTO 00000KT 10SM CLR 30/15 A2997 RMK AO2 T03000147
KAPY 162115Z AUTO 36004KT 10SM CLR 30/15 A2997 RMK AO2 T03000151
KAPY 162055Z AUTO 26003KT 10SM CLR 29/15 A2998 RMK AO2 T02950150
KAPY 162035Z AUTO 00000KT 10SM CLR 29/15 A2998 RMK AO2 T02950151
KAPY 162015Z AUTO 00000KT 10SM CLR 29/15 A2999 RMK AO2 T02940150
KAPY 161955Z AUTO 00000KT 10SM CLR 28/15 A3000 RMK AO2 T02840151
KAPY 161935Z AUTO 00000KT 10SM CLR 27/15 A3001 RMK AO2 T02790153
KAPY 161915Z AUTO 00000KT 10SM CLR 28/15 A3002 RMK AO2 T02810154
KAPY 161855Z AUTO 00000KT 10SM CLR 28/15 A3004 RMK AO2 T02810157